Time;durP1;ratioP1;P1;durP2;ratioP2;P2;SDS_P1;SDS_P2;PMS_P1;PMS_P2;Temp;Humidity;BMP_temperature;BMP_pressure;BME280_temperature;BME280_humidity;BME280_pressure;Samples;Min_cycle;Max_cycle;Signal;HPM_P1;HPM_P2
2021/04/02 00:02:23;;;;;;;1.75;1.65;;;5.40;99.90;;;;;;5043710;28;20215;-83
2021/04/02 00:04:50;;;;;;;1.35;1.25;;;5.50;99.90;;;;;;5043355;28;20234;-83
2021/04/02 00:07:16;;;;;;;1.63;1.52;;;5.90;99.90;;;;;;5041264;28;20286;-82
2021/04/02 00:09:42;;;;;;;5.05;2.00;;;6.00;99.90;;;;;;5041528;28;20235;-83
2021/04/02 00:12:09;;;;;;;2.90;2.00;;;5.90;99.90;;;;;;5043648;28;20257;-83
2021/04/02 00:14:36;;;;;;;1.88;1.77;;;6.10;99.90;;;;;;5042469;28;20682;-83
2021/04/02 00:17:03;;;;;;;2.45;2.03;;;5.60;99.90;;;;;;5042779;28;20253;-82
2021/04/02 00:19:29;;;;;;;4.00;2.22;;;6.10;99.90;;;;;;5041299;28;20223;-83
2021/04/02 00:21:55;;;;;;;2.70;1.60;;;5.50;99.90;;;;;;5038593;28;20203;-83
2021/04/02 00:24:23;;;;;;;5.95;2.10;;;6.00;99.90;;;;;;5039583;28;20748;-83
2021/04/02 00:26:49;;;;;;;2.95;1.90;;;5.80;99.90;;;;;;5041796;28;20208;-82
2021/04/02 00:29:15;;;;;;;4.78;1.90;;;6.10;99.90;;;;;;5042293;28;20224;-83
2021/04/02 00:31:42;;;;;;;1.83;1.70;;;6.20;99.90;;;;;;5049059;28;20202;-83
2021/04/02 00:34:08;;;;;;;1.70;1.60;;;5.60;99.90;;;;;;5048834;28;20200;-83
2021/04/02 00:36:34;;;;;;;8.93;2.47;;;6.10;99.90;;;;;;5047565;28;20199;-83
2021/04/02 00:39:01;;;;;;;1.95;1.80;;;6.20;99.90;;;;;;5048511;28;20220;-83
2021/04/02 00:41:27;;;;;;;4.05;1.30;;;6.00;99.90;;;;;;5047114;28;20263;-82
2021/04/02 00:43:53;;;;;;;5.80;2.45;;;5.60;99.90;;;;;;5048097;28;20234;-82
2021/04/02 00:46:21;;;;;;;1.75;1.50;;;5.50;99.90;;;;;;5048242;28;20210;-83
2021/04/02 00:48:49;;;;;;;2.28;1.90;;;5.90;99.90;;;;;;5046983;28;20234;-85
2021/04/02 00:51:21;;;;;;;2.35;1.92;;;5.90;99.90;;;;;;5047217;28;20203;-83
2021/04/02 00:53:48;;;;;;;1.67;1.55;;;6.00;99.90;;;;;;5049414;28;20188;-83
2021/04/02 00:56:14;;;;;;;2.85;1.90;;;6.00;99.90;;;;;;5046792;28;20200;-83
2021/04/02 00:58:41;;;;;;;2.13;1.55;;;6.10;99.90;;;;;;5042164;28;20219;-82
2021/04/02 01:01:10;;;;;;;6.25;2.67;;;5.70;99.90;;;;;;5040616;28;20237;-82
2021/04/02 01:03:37;;;;;;;3.53;1.65;;;5.30;99.90;;;;;;5041167;28;20718;-83
2021/04/02 01:06:06;;;;;;;1.80;1.70;;;5.80;99.90;;;;;;5045397;28;20273;-83
2021/04/02 01:08:33;;;;;;;2.88;1.70;;;6.00;99.90;;;;;;5047150;28;20286;-83
2021/04/02 01:11:03;;;;;;;2.53;1.80;;;5.40;99.90;;;;;;5049647;28;20211;-82
2021/04/02 01:13:34;;;;;;;2.70;1.77;;;5.80;99.90;;;;;;5051571;28;20187;-83
2021/04/02 01:16:03;;;;;;;2.65;2.22;;;5.80;99.90;;;;;;5056064;28;20199;-83
2021/04/02 01:18:33;;;;;;;3.45;1.90;;;5.70;99.90;;;;;;5057108;28;20254;-82
2021/04/02 01:21:10;;;;;;;3.55;1.90;;;5.60;99.90;;;;;;5055914;28;20196;-83
2021/04/02 01:23:46;;;;;;;3.70;1.75;;;5.10;99.90;;;;;;5055090;28;20649;-83
2021/04/02 01:26:27;;;;;;;4.38;2.50;;;5.30;99.90;;;;;;5056903;28;20214;-83
2021/04/02 01:29:02;;;;;;;4.72;2.25;;;5.10;99.90;;;;;;5056297;28;20269;-83
2021/04/02 01:31:29;;;;;;;2.58;2.30;;;5.50;99.90;;;;;;5055658;28;20215;-82
2021/04/02 01:33:58;;;;;;;2.10;1.90;;;5.10;99.90;;;;;;5054258;28;20203;-83
2021/04/02 01:36:26;;;;;;;2.72;2.53;;;4.90;99.90;;;;;;5052734;28;20207;-82
2021/04/02 01:38:55;;;;;;;2.10;1.90;;;5.40;99.90;;;;;;5051685;28;20234;-82
2021/04/02 01:41:23;;;;;;;3.25;1.80;;;5.30;99.90;;;;;;5049227;28;20234;-82
2021/04/02 01:43:53;;;;;;;3.67;2.70;;;5.40;99.90;;;;;;5047502;28;20557;-83
2021/04/02 01:46:22;;;;;;;2.70;2.50;;;5.20;99.90;;;;;;5047988;28;20204;-82
2021/04/02 01:48:53;;;;;;;2.30;2.20;;;5.30;99.90;;;;;;5044881;28;20234;-83
2021/04/02 01:51:20;;;;;;;2.80;2.58;;;5.20;99.90;;;;;;5044149;28;20192;-82
2021/04/02 01:53:50;;;;;;;2.55;2.15;;;5.20;99.90;;;;;;5044073;28;20211;-83
2021/04/02 01:56:16;;;;;;;5.13;2.40;;;5.20;99.90;;;;;;5044468;28;20262;-83
2021/04/02 01:58:45;;;;;;;2.85;2.35;;;5.40;99.90;;;;;;5044224;28;20232;-83
2021/04/02 02:01:14;;;;;;;2.55;2.35;;;5.10;99.90;;;;;;5044275;28;20219;-83
2021/04/02 02:03:46;;;;;;;4.22;1.75;;;4.90;99.90;;;;;;5044819;28;20210;-83
2021/04/02 02:06:12;;;;;;;4.60;4.25;;;5.00;99.90;;;;;;5044006;28;20184;-83
2021/04/02 02:08:41;;;;;;;2.50;2.30;;;5.00;99.90;;;;;;5044151;28;20262;-83
2021/04/02 02:11:10;;;;;;;3.30;2.05;;;4.80;99.90;;;;;;5045199;28;20235;-83
2021/04/02 02:13:38;;;;;;;2.95;2.45;;;;;;;;;;5051027;28;20286;-82
2021/04/02 02:16:06;;;;;;;2.33;2.17;;;;;;;;;;5047776;28;20200;-82
2021/04/02 02:18:34;;;;;;;2.40;2.20;;;;;;;;;;5054561;28;20243;-82
2021/04/02 02:21:02;;;;;;;3.40;3.10;;;;;;;;;;5046474;28;20208;-82
2021/04/02 02:23:28;;;;;;;4.70;2.10;;;;;;;;;;5049559;28;20208;-82
2021/04/02 02:25:55;;;;;;;2.97;2.78;;;;;;;;;;5056406;28;20259;-82
2021/04/02 02:28:23;;;;;;;5.15;2.75;;;;;;;;;;5054784;28;20223;-82
2021/04/02 02:30:50;;;;;;;3.58;2.30;;;;;;;;;;5049283;28;20204;-82
2021/04/02 02:33:19;;;;;;;4.55;2.88;;;;;;;;;;5052749;28;20204;-83
2021/04/02 02:35:49;;;;;;;3.05;2.50;;;;;;;;;;5054925;28;20278;-83
2021/04/02 02:38:18;;;;;;;3.03;2.83;;;;;;;;;;5051273;28;20235;-83
2021/04/02 02:40:44;;;;;;;4.60;1.85;;;4.40;99.90;;;;;;5047656;28;20208;-83
2021/04/02 02:43:11;;;;;;;2.95;2.40;;;4.20;99.90;;;;;;5044306;28;20234;-82
2021/04/02 02:45:37;;;;;;;3.33;2.58;;;4.10;99.90;;;;;;5044475;28;20220;-83
2021/04/02 02:48:04;;;;;;;4.05;2.90;;;4.10;99.90;;;;;;5042701;28;20234;-83
2021/04/02 02:50:32;;;;;;;3.13;2.85;;;;;;;;;;5042510;28;20710;-83
2021/04/02 02:53:00;;;;;;;4.88;2.88;;;4.30;99.90;;;;;;5043259;28;20204;-83
2021/04/02 02:55:30;;;;;;;2.60;2.47;;;4.30;99.90;;;;;;5042340;28;20230;-83
2021/04/02 02:57:57;;;;;;;4.40;2.75;;;;;;;;;;5043144;28;20685;-83
2021/04/02 03:00:25;;;;;;;3.40;3.13;;;;;;;;;;5046995;28;20195;-83
2021/04/02 03:02:54;;;;;;;5.78;3.13;;;3.90;99.90;;;;;;5053466;28;20199;-82
2021/04/02 03:05:24;;;;;;;10.48;6.63;;;4.00;99.90;;;;;;5057581;28;20234;-82
2021/04/02 03:07:54;;;;;;;4.57;3.25;;;3.60;99.90;;;;;;5055510;28;20211;-82
2021/04/02 03:10:20;;;;;;;12.57;6.03;;;3.30;99.90;;;;;;5056019;28;20196;-83
2021/04/02 03:12:49;;;;;;;4.22;3.25;;;3.70;99.90;;;;;;5054467;28;20207;-83
2021/04/02 03:15:19;;;;;;;3.53;3.20;;;3.50;99.90;;;;;;5054916;28;20196;-83
2021/04/02 03:17:49;;;;;;;7.18;4.80;;;3.70;99.90;;;;;;5050156;28;20230;-83
2021/04/02 03:20:16;;;;;;;11.55;7.03;;;4.00;99.90;;;;;;5046393;28;20192;-83
2021/04/02 03:22:43;;;;;;;4.13;3.08;;;3.80;99.90;;;;;;5043016;28;20212;-84
2021/04/02 03:25:12;;;;;;;3.88;3.53;;;3.70;99.90;;;;;;5040626;28;20254;-82
2021/04/02 03:27:39;;;;;;;5.97;5.38;;;;;;;;;;5041967;28;20250;-83
2021/04/02 03:30:08;;;;;;;4.05;3.50;;;;;;;;;;5040257;28;20230;-83
2021/04/02 03:32:35;;;;;;;7.05;5.07;;;;;;;;;;5039899;28;20203;-83
2021/04/02 03:35:03;;;;;;;8.88;6.32;;;;;;;;;;5043253;28;20207;-82
2021/04/02 03:37:32;;;;;;;4.72;3.00;;;;;;;;;;5042895;28;20298;-83
2021/04/02 03:40:00;;;;;;;6.85;5.00;;;;;;;;;;5042962;28;20227;-83
2021/04/02 03:42:33;;;;;;;6.40;3.72;;;;;;;;;;5043150;28;20598;-83
2021/04/02 03:45:03;;;;;;;5.13;3.50;;;;;;;;;;5043151;28;20226;-83
2021/04/02 03:47:32;;;;;;;4.15;3.67;;;;;;;;;;5043565;28;20188;-83
2021/04/02 03:50:01;;;;;;;5.63;3.97;;;;;;;;;;5042906;28;20220;-83
2021/04/02 03:52:33;;;;;;;7.78;3.80;;;;;;;;;;5042623;28;20245;-83
2021/04/02 03:55:04;;;;;;;5.10;4.50;;;;;;;;;;5042643;28;20185;-83
2021/04/02 03:57:31;;;;;;;4.43;3.15;;;;;;;;;;5042017;28;20191;-83
2021/04/02 03:59:59;;;;;;;4.55;3.53;;;3.40;99.90;;;;;;5041039;28;20767;-83
2021/04/02 04:02:28;;;;;;;4.30;3.72;;;3.30;99.90;;;;;;5041661;28;20223;-82
2021/04/02 04:04:58;;;;;;;5.20;3.67;;;3.20;99.90;;;;;;5042073;28;20230;-83
2021/04/02 04:07:26;;;;;;;7.22;3.70;;;3.20;99.90;;;;;;5040851;28;20570;-83
2021/04/02 04:09:54;;;;;;;5.05;3.78;;;3.60;99.90;;;;;;5038842;28;20322;-83
2021/04/02 04:12:22;;;;;;;4.68;4.03;;;3.50;99.90;;;;;;5040305;28;20208;-81
2021/04/02 04:14:50;;;;;;;6.18;4.20;;;3.40;99.90;;;;;;5040159;28;20668;-82
2021/04/02 04:17:18;;;;;;;6.95;5.18;;;3.90;99.90;;;;;;5039708;28;20207;-82
2021/04/02 04:19:47;;;;;;;4.15;3.35;;;3.80;99.90;;;;;;5039793;28;20250;-82
2021/04/02 04:22:15;;;;;;;4.82;4.47;;;3.70;99.90;;;;;;5039585;28;20199;-82
2021/04/02 04:24:44;;;;;;;4.07;3.75;;;3.30;99.90;;;;;;5040933;28;20219;-82
2021/04/02 04:27:12;;;;;;;3.80;3.50;;;3.40;99.90;;;;;;5046661;28;20238;-82
2021/04/02 04:29:44;;;;;;;3.80;3.50;;;3.20;99.90;;;;;;5044478;28;20230;-82
2021/04/02 04:32:16;;;;;;;4.88;3.88;;;3.10;99.90;;;;;;5047265;28;20192;-82
2021/04/02 04:34:44;;;;;;;5.68;3.47;;;3.50;99.90;;;;;;5049130;28;20187;-81
2021/04/02 04:37:13;;;;;;;3.83;3.53;;;3.80;99.90;;;;;;5054316;28;20199;-81
2021/04/02 04:39:41;;;;;;;5.40;3.70;;;3.50;99.90;;;;;;5054306;28;20212;-81
2021/04/02 04:42:11;;;;;;;3.50;3.20;;;3.20;99.90;;;;;;5058222;28;20565;-81
2021/04/02 04:44:38;;;;;;;5.43;4.43;;;3.50;99.90;;;;;;5058163;28;20291;-81
2021/04/02 04:47:05;;;;;;;7.28;3.78;;;3.40;99.90;;;;;;5059195;28;20207;-82
2021/04/02 04:49:31;;;;;;;6.15;4.03;;;3.40;99.90;;;;;;5057108;28;20235;-81
2021/04/02 04:51:59;;;;;;;6.32;4.75;;;3.30;99.90;;;;;;5055972;28;20230;-81
2021/04/02 04:54:27;;;;;;;4.00;3.55;;;3.10;99.90;;;;;;5055382;28;20218;-82
2021/04/02 04:56:57;;;;;;;8.95;4.30;;;3.30;99.90;;;;;;5047748;28;20310;-82
2021/04/02 04:59:24;;;;;;;3.92;3.45;;;3.40;99.90;;;;;;5047364;28;20306;-82
2021/04/02 05:01:54;;;;;;;8.13;5.20;;;3.30;99.90;;;;;;5048076;28;20207;-81
2021/04/02 05:04:21;;;;;;;4.20;3.80;;;3.30;99.90;;;;;;5046039;28;20283;-81
2021/04/02 05:06:53;;;;;;;7.28;4.78;;;3.00;99.90;;;;;;5045343;28;20300;-81
2021/04/02 05:09:20;;;;;;;5.72;4.60;;;3.60;99.90;;;;;;5074427;22;20223;-83
2021/04/02 05:11:46;;;;;;;4.50;4.07;;;3.60;99.90;;;;;;5042713;28;20227;-83
2021/04/02 05:14:14;;;;;;;7.30;4.63;;;3.30;99.90;;;;;;5048243;28;20239;-82
2021/04/02 05:16:42;;;;;;;8.55;5.10;;;3.20;99.90;;;;;;5058511;28;20183;-81
2021/04/02 05:19:10;;;;;;;4.43;3.97;;;2.90;99.90;;;;;;5058665;28;20250;-81
2021/04/02 05:21:41;;;;;;;6.45;4.75;;;3.50;99.90;;;;;;5055326;28;20254;-80
2021/04/02 05:24:08;;;;;;;12.55;5.97;;;3.50;99.90;;;;;;5054779;28;20192;-81
2021/04/02 05:26:35;;;;;;;7.70;4.78;;;3.50;99.90;;;;;;5055541;28;20258;-81
2021/04/02 05:29:01;;;;;;;8.63;5.22;;;3.60;99.90;;;;;;5053226;28;20231;-82
2021/04/02 05:31:29;;;;;;;5.00;4.40;;;3.80;99.90;;;;;;5055152;28;20200;-80
2021/04/02 05:33:55;;;;;;;7.90;4.38;;;3.60;99.90;;;;;;5055295;28;20204;-80
2021/04/02 05:36:21;;;;;;;5.10;4.20;;;3.60;99.90;;;;;;5049274;28;20208;-82
2021/04/02 05:38:47;;;;;;;6.68;5.25;;;4.00;99.90;;;;;;5044685;28;20254;-81
2021/04/02 05:41:18;;;;;;;9.50;5.22;;;3.60;99.90;;;;;;5044014;28;20250;-82
2021/04/02 05:43:48;;;;;;;5.40;4.30;;;3.60;99.90;;;;;;5043590;28;20203;-83
2021/04/02 05:46:17;;;;;;;8.05;5.18;;;4.00;99.90;;;;;;5043516;28;20523;-84
2021/04/02 05:48:44;;;;;;;5.65;5.15;;;4.10;99.90;;;;;;5041834;28;20757;-83
2021/04/02 05:51:11;;;;;;;5.63;5.03;;;3.80;99.90;;;;;;5041508;28;20804;-83
2021/04/02 05:53:39;;;;;;;7.85;5.10;;;4.20;99.90;;;;;;5042578;28;20437;-84
2021/04/02 05:56:06;;;;;;;8.25;5.63;;;3.80;99.90;;;;;;5043170;28;20571;-84
2021/04/02 05:58:33;;;;;;;6.32;4.75;;;4.00;99.90;;;;;;5042567;28;20231;-84
2021/04/02 06:00:59;;;;;;;6.43;4.50;;;4.20;99.90;;;;;;5042805;28;20793;-83
2021/04/02 06:03:26;;;;;;;6.57;4.65;;;4.30;99.90;;;;;;5042441;28;20196;-81
2021/04/02 06:05:52;;;;;;;5.05;4.55;;;4.30;99.90;;;;;;5042229;28;20254;-82
2021/04/02 06:08:19;;;;;;;13.68;10.25;;;3.60;99.90;;;;;;5049176;28;20206;-80
2021/04/02 06:10:45;;;;;;;8.57;5.55;;;3.80;99.90;;;;;;5058524;28;20200;-81
2021/04/02 06:13:11;;;;;;;8.90;4.30;;;4.10;99.90;;;;;;5058893;28;20204;-81
2021/04/02 06:15:38;;;;;;;7.38;4.85;;;3.90;99.90;;;;;;5045019;28;20438;-83
2021/04/02 06:18:06;;;;;;;5.30;4.57;;;5.10;99.90;;;;;;5042691;28;20207;-83
2021/04/02 06:20:35;;;;;;;6.53;4.95;;;4.90;99.90;;;;;;5041693;28;20589;-83
2021/04/02 06:23:05;;;;;;;9.75;5.82;;;4.50;99.90;;;;;;5042811;28;20210;-83
2021/04/02 06:25:32;;;;;;;6.75;5.50;;;4.50;99.90;;;;;;5040759;28;20621;-83
2021/04/02 06:27:58;;;;;;;10.40;5.90;;;4.50;99.90;;;;;;5040206;28;20208;-83
2021/04/02 06:30:27;;;;;;;9.48;6.50;;;4.80;99.90;;;;;;5041315;28;20227;-83
2021/04/02 06:32:53;;;;;;;7.65;6.38;;;5.00;99.90;;;;;;5042207;28;20603;-84
2021/04/02 06:35:23;;;;;;;7.80;7.05;;;4.20;99.90;;;;;;5041901;28;20196;-83
2021/04/02 06:37:53;;;;;;;10.73;7.93;;;4.40;99.90;;;;;;5039933;28;20243;-83
2021/04/02 06:40:22;;;;;;;13.88;10.18;;;4.50;99.90;;;;;;5040783;28;20223;-83
2021/04/02 06:42:49;;;;;;;11.48;8.10;;;4.70;99.90;;;;;;5041605;28;20203;-83
2021/04/02 06:45:17;;;;;;;9.27;6.88;;;4.60;99.90;;;;;;5041337;28;20224;-83
2021/04/02 06:47:45;;;;;;;9.98;8.15;;;4.80;99.90;;;;;;5043670;28;20208;-83
2021/04/02 06:50:16;;;;;;;11.90;8.27;;;4.30;99.90;;;;;;5042498;28;20303;-85
2021/04/02 06:52:46;;;;;;;20.88;11.40;;;4.50;99.90;;;;;;5041579;28;20675;-84
2021/04/02 06:55:13;;;;;;;19.50;12.43;;;4.60;99.90;;;;;;5041352;28;20181;-82
2021/04/02 06:57:45;;;;;;;16.52;11.70;;;5.00;99.90;;;;;;5045045;28;20204;-83
2021/04/02 07:00:16;;;;;;;15.93;10.13;;;4.20;99.90;;;;;;5041563;28;20230;-83
2021/04/02 07:02:45;;;;;;;10.75;7.72;;;4.80;99.90;;;;;;5038285;28;20709;-83
2021/04/02 07:05:13;;;;;;;13.43;10.40;;;4.70;99.90;;;;;;5041278;28;20230;-82
2021/04/02 07:07:40;;;;;;;16.15;11.18;;;5.10;99.90;;;;;;5040983;28;20208;-82
2021/04/02 07:10:09;;;;;;;14.95;10.93;;;4.80;99.90;;;;;;5039911;28;20232;-84
2021/04/02 07:12:38;;;;;;;17.50;12.57;;;5.00;99.90;;;;;;5039404;28;20204;-84
2021/04/02 07:15:07;;;;;;;17.13;13.55;;;4.50;99.90;;;;;;5039787;28;20630;-84
2021/04/02 07:17:35;;;;;;;17.55;12.25;;;4.80;99.90;;;;;;5040179;28;20212;-83
2021/04/02 07:20:02;;;;;;;18.63;12.95;;;4.50;99.90;;;;;;5038893;28;20265;-81
2021/04/02 07:22:28;;;;;;;21.60;13.40;;;4.90;99.90;;;;;;5039666;28;20694;-82
2021/04/02 07:24:56;;;;;;;22.40;14.35;;;4.70;99.90;;;;;;5040147;28;20204;-83
2021/04/02 07:27:22;;;;;;;21.55;15.45;;;4.70;99.90;;;;;;5040264;28;20257;-84
2021/04/02 07:29:49;;;;;;;22.20;13.50;;;5.40;99.90;;;;;;5039647;28;20227;-82
2021/04/02 07:32:16;;;;;;;18.75;11.80;;;5.00;99.90;;;;;;5048040;28;20581;-83
2021/04/02 07:34:42;;;;;;;24.83;13.52;;;4.50;99.90;;;;;;5044395;28;20689;-83
2021/04/02 07:37:11;;;;;;;30.08;17.35;;;4.90;99.90;;;;;;5045690;28;20207;-83
2021/04/02 07:39:38;;;;;;;27.10;16.35;;;5.30;99.90;;;;;;5048262;28;20224;-84
2021/04/02 07:42:06;;;;;;;32.53;19.17;;;4.10;99.90;;;;;;5053292;28;20274;-81
2021/04/02 07:44:37;;;;;;;30.77;18.30;;;4.90;99.90;;;;;;5055607;28;20192;-81
2021/04/02 07:47:07;;;;;;;24.63;15.70;;;5.10;99.90;;;;;;5054338;28;20570;-83
2021/04/02 07:49:39;;;;;;;25.02;14.88;;;5.10;99.90;;;;;;5054196;28;20246;-83
2021/04/02 07:52:06;;;;;;;24.65;15.55;;;5.00;99.90;;;;;;5050879;28;20622;-82
2021/04/02 07:54:34;;;;;;;21.02;14.18;;;5.30;99.90;;;;;;5045048;28;20246;-83
2021/04/02 07:57:05;;;;;;;23.70;15.75;;;4.90;99.90;;;;;;5042921;28;20203;-85
2021/04/02 07:59:37;;;;;;;25.10;15.07;;;4.90;99.90;;;;;;5049081;28;20686;-81
2021/04/02 08:02:05;;;;;;;26.05;17.40;;;5.40;99.90;;;;;;5048563;28;20207;-84
2021/04/02 08:04:37;;;;;;;24.20;14.00;;;5.30;99.90;;;;;;5051730;28;20203;-84
2021/04/02 08:07:04;;;;;;;21.55;13.85;;;5.20;99.90;;;;;;5043073;28;20223;-83
2021/04/02 08:09:31;;;;;;;24.50;16.42;;;5.40;99.90;;;;;;5039072;28;20236;-84
2021/04/02 08:11:58;;;;;;;18.70;12.80;;;4.20;99.90;;;;;;5039155;28;20229;-83
2021/04/02 08:14:35;;;;;;;19.52;12.93;;;4.90;99.90;;;;;;5039113;28;20207;-84
2021/04/02 08:17:01;;;;;;;21.70;14.20;;;5.20;99.90;;;;;;5039557;28;20200;-84
2021/04/02 08:19:29;;;;;;;22.98;15.05;;;5.00;99.90;;;;;;5038176;28;20224;-82
2021/04/02 08:21:58;;;;;;;19.58;13.50;;;5.10;99.90;;;;;;5037357;28;20227;-83
2021/04/02 08:24:27;;;;;;;13.65;9.70;;;4.90;99.90;;;;;;5037447;28;20211;-84
2021/04/02 08:26:54;;;;;;;19.00;12.82;;;5.40;99.90;;;;;;5037642;28;20263;-83
2021/04/02 08:29:23;;;;;;;14.07;11.60;;;5.50;99.90;;;;;;5050216;28;20349;-80
2021/04/02 08:31:51;;;;;;;14.73;10.85;;;5.70;99.90;;;;;;5054400;28;20237;-81
2021/04/02 08:34:20;;;;;;;10.85;8.50;;;5.60;99.90;;;;;;5048726;28;20238;-82
2021/04/02 08:36:49;;;;;;;11.40;8.57;;;5.70;99.90;;;;;;5040541;28;20199;-86
2021/04/02 08:39:18;;;;;;;10.30;8.25;;;5.60;99.90;;;;;;5039229;28;20277;-84
2021/04/02 08:41:45;;;;;;;11.70;8.00;;;6.00;99.90;;;;;;5038061;28;20724;-84
2021/04/02 08:44:11;;;;;;;11.27;7.40;;;5.70;99.90;;;;;;5038252;28;20226;-84
2021/04/02 08:46:40;;;;;;;7.35;6.65;;;6.00;99.90;;;;;;5038087;28;20230;-84
2021/04/02 08:49:08;;;;;;;9.40;6.85;;;5.60;99.90;;;;;;5038821;28;20282;-83
2021/04/02 08:51:35;;;;;;;7.78;6.97;;;5.90;99.90;;;;;;5038410;28;20686;-84
2021/04/02 08:54:02;;;;;;;9.45;6.75;;;6.30;99.90;;;;;;5039331;28;20674;-84
2021/04/02 08:56:30;;;;;;;9.40;7.45;;;6.00;99.90;;;;;;5041837;28;20204;-83
2021/04/02 08:58:58;;;;;;;9.63;6.28;;;5.90;99.90;;;;;;5045332;28;20373;-84
2021/04/02 09:01:24;;;;;;;8.27;7.32;;;6.50;99.90;;;;;;5049123;28;20215;-83
2021/04/02 09:03:54;;;;;;;8.30;6.80;;;5.70;99.90;;;;;;5051812;28;20227;-84
2021/04/02 09:06:20;;;;;;;7.07;6.20;;;6.20;99.90;;;;;;5052925;28;20258;-83
2021/04/02 09:08:46;;;;;;;7.88;5.68;;;6.40;99.90;;;;;;5052456;28;20235;-80
2021/04/02 09:11:14;;;;;;;7.60;6.45;;;6.70;99.90;;;;;;5052335;28;20184;-85
2021/04/02 09:13:43;;;;;;;11.48;8.93;;;6.70;99.90;;;;;;5049340;28;20207;-83
2021/04/02 09:16:11;;;;;;;10.77;8.65;;;6.80;99.90;;;;;;5045961;28;20254;-84
2021/04/02 09:18:52;;;;;;;16.70;12.68;;;6.80;99.90;;;;;;5043515;28;20224;-85
2021/04/02 09:21:19;;;;;;;14.43;11.35;;;7.00;99.90;;;;;;5044253;28;20199;-84
2021/04/02 09:23:50;;;;;;;11.00;9.02;;;6.30;99.90;;;;;;5049925;28;20204;-82
2021/04/02 09:26:17;;;;;;;14.40;10.27;;;7.00;99.90;;;;;;5030328;28;20231;-83
2021/04/02 09:28:45;;;;;;;10.65;9.65;;;6.90;99.90;;;;;;5042879;28;20228;-83
2021/04/02 09:31:17;;;;;;;12.85;10.15;;;7.10;99.90;;;;;;5043231;28;20208;-81
2021/04/02 09:33:49;;;;;;;10.00;8.50;;;6.70;99.90;;;;;;5043399;28;20227;-80
2021/04/02 09:36:16;;;;;;;11.07;8.07;;;;;;;;;;5042427;28;20195;-80
2021/04/02 09:38:43;;;;;;;10.38;7.93;;;;;;;;;;5043261;28;20293;-82
2021/04/02 09:41:10;;;;;;;7.75;6.70;;;7.20;99.90;;;;;;5042220;28;20622;-80
2021/04/02 09:43:44;;;;;;;7.32;6.60;;;7.20;99.90;;;;;;5042480;28;20206;-81
2021/04/02 09:46:28;;;;;;;8.10;7.30;;;7.40;99.90;;;;;;5043200;28;20219;-83
2021/04/02 09:49:01;;;;;;;9.82;7.35;;;7.20;99.90;;;;;;5044169;28;20230;-83
2021/04/02 09:51:27;;;;;;;7.28;6.00;;;7.50;99.90;;;;;;5045979;28;20635;-83
2021/04/02 09:53:53;;;;;;;6.63;5.03;;;8.10;99.90;;;;;;5044063;28;20218;-81
2021/04/02 09:56:19;;;;;;;5.47;4.97;;;8.50;99.90;;;;;;5044617;28;20232;-81
2021/04/02 09:58:46;;;;;;;6.28;4.30;;;8.10;99.90;;;;;;5041670;28;20349;-81
2021/04/02 10:01:12;;;;;;;6.90;4.57;;;;;;;;;;5041817;28;20203;-81
2021/04/02 10:03:39;;;;;;;4.95;4.45;;;;;;;;;;5046531;28;20240;-81
2021/04/02 10:06:06;;;;;;;4.57;4.20;;;8.60;99.90;;;;;;5050267;28;20215;-81
2021/04/02 10:08:32;;;;;;;5.43;4.43;;;7.80;99.90;;;;;;5054913;28;20239;-84
2021/04/02 10:10:58;;;;;;;4.70;3.40;;;7.60;99.90;;;;;;5057447;28;20180;-83
2021/04/02 10:13:24;;;;;;;5.47;4.07;;;7.70;99.90;;;;;;5053037;28;20214;-85
2021/04/02 10:15:52;;;;;;;5.20;3.85;;;;;;;;;;5052006;28;20195;-85
2021/04/02 10:18:19;;;;;;;6.10;4.20;;;;;;;;;;5051499;28;20204;-83
2021/04/02 10:20:45;;;;;;;6.75;3.95;;;8.20;99.90;;;;;;5052794;28;20454;-81
2021/04/02 10:23:12;;;;;;;2.50;2.30;;;;;;;;;;5054737;28;20204;-83
2021/04/02 10:25:38;;;;;;;2.40;2.20;;;8.70;99.90;;;;;;5056108;28;20222;-83
2021/04/02 10:28:05;;;;;;;3.10;2.70;;;9.10;99.90;;;;;;5048798;28;20200;-84
2021/04/02 10:30:31;;;;;;;2.65;2.45;;;8.20;99.90;;;;;;5048462;28;20227;-81
2021/04/02 10:32:58;;;;;;;2.50;2.30;;;;;;;;;;5056195;28;20224;-83
2021/04/02 10:35:26;;;;;;;2.83;2.28;;;8.40;99.90;;;;;;5057076;28;20204;-82
2021/04/02 10:37:53;;;;;;;3.00;2.33;;;8.50;99.90;;;;;;5057761;28;20183;-83
2021/04/02 10:40:20;;;;;;;5.97;1.90;;;8.30;99.90;;;;;;5055436;28;20254;-84
2021/04/02 10:42:46;;;;;;;3.53;2.42;;;9.10;99.90;;;;;;5051894;28;20447;-84
2021/04/02 10:45:13;;;;;;;2.23;2.13;;;8.70;99.90;;;;;;5051469;28;20207;-84
2021/04/02 10:47:39;;;;;;;2.20;2.00;;;8.70;99.90;;;;;;5049729;28;20450;-84
2021/04/02 10:50:07;;;;;;;2.30;2.10;;;;;;;;;;5048185;28;20801;-84
2021/04/02 10:52:34;;;;;;;2.20;1.73;;;;;;;;;;5046835;28;20472;-84
2021/04/02 10:55:00;;;;;;;2.03;1.83;;;9.30;99.90;;;;;;5048504;28;20446;-85
2021/04/02 10:57:28;;;;;;;2.87;2.20;;;9.20;99.90;;;;;;5048366;28;20447;-83
2021/04/02 10:59:56;;;;;;;2.30;1.87;;;9.50;99.90;;;;;;5048561;28;20448;-85
2021/04/02 11:02:23;;;;;;;1.70;1.60;;;;;;;;;;5048913;28;20443;-84
2021/04/02 11:04:49;;;;;;;2.40;2.00;;;9.30;99.90;;;;;;5048699;28;20433;-84
2021/04/02 11:07:16;;;;;;;3.77;2.23;;;9.30;99.90;;;;;;5048262;28;20482;-84
2021/04/02 11:09:42;;;;;;;3.30;1.90;;;9.20;99.90;;;;;;5070866;23;20482;-81
2021/04/02 11:12:09;;;;;;;2.40;2.20;;;9.30;99.90;;;;;;5047578;28;20784;-81
2021/04/02 11:14:35;;;;;;;2.87;2.00;;;9.50;99.90;;;;;;5049330;28;20449;-81
2021/04/02 11:17:01;;;;;;;2.13;1.80;;;8.90;99.90;;;;;;5046477;28;20438;-82
2021/04/02 11:19:28;;;;;;;2.43;2.33;;;9.60;99.90;;;;;;5044394;28;20466;-81
2021/04/02 11:21:54;;;;;;;3.03;2.50;;;8.70;99.90;;;;;;5043584;28;20420;-82
2021/04/02 11:24:21;;;;;;;5.30;2.17;;;10.00;99.90;;;;;;5043631;28;20512;-82
2021/04/02 11:26:47;;;;;;;5.00;2.50;;;8.90;99.90;;;;;;5044022;28;20514;-82
2021/04/02 11:29:13;;;;;;;2.77;2.50;;;9.40;99.90;;;;;;5043743;28;20507;-82
2021/04/02 11:31:39;;;;;;;1.90;1.80;;;9.10;99.90;;;;;;5043383;28;20457;-82
2021/04/02 11:34:05;;;;;;;2.17;2.07;;;9.90;99.90;;;;;;5046285;28;20427;-81
2021/04/02 11:36:32;;;;;;;3.30;2.53;;;9.60;99.90;;;;;;5047125;28;20442;-81
2021/04/02 11:38:58;;;;;;;3.40;2.63;;;;;;;;;;5043493;28;20447;-82
2021/04/02 11:41:25;;;;;;;2.93;2.73;;;9.80;99.90;;;;;;5043798;28;20521;-82
2021/04/02 11:43:51;;;;;;;3.00;2.70;;;9.40;99.90;;;;;;5045834;28;20454;-83
2021/04/02 11:46:19;;;;;;;2.37;2.17;;;9.80;99.90;;;;;;5051050;28;20549;-84
2021/04/02 11:48:45;;;;;;;3.77;3.40;;;;;;;;;;5053257;28;20549;-84
2021/04/02 11:51:12;;;;;;;6.03;3.00;;;10.20;99.90;;;;;;5050911;28;20442;-83
2021/04/02 11:53:38;;;;;;;4.50;2.53;;;10.40;99.90;;;;;;5049362;28;20442;-81
2021/04/02 11:56:05;;;;;;;3.67;2.30;;;9.80;99.90;;;;;;5053101;28;20446;-82
2021/04/02 11:58:32;;;;;;;4.10;2.63;;;10.20;99.90;;;;;;5050024;28;20425;-82
2021/04/02 12:00:58;;;;;;;3.93;2.70;;;10.30;99.90;;;;;;5048597;28;20458;-83
2021/04/02 12:03:24;;;;;;;3.80;2.40;;;10.50;99.90;;;;;;5048197;28;20443;-82
2021/04/02 12:05:57;;;;;;;2.40;2.20;;;10.70;99.90;;;;;;5048920;28;20481;-82
2021/04/02 12:08:24;;;;;;;3.33;2.33;;;11.10;99.90;;;;;;5050955;28;20494;-83
2021/04/02 12:10:50;;;;;;;2.43;1.80;;;10.00;99.90;;;;;;5051155;28;20528;-82
2021/04/02 12:13:16;;;;;;;2.60;2.40;;;10.20;99.90;;;;;;5050178;28;20442;-82
2021/04/02 12:15:43;;;;;;;2.90;2.70;;;10.10;99.90;;;;;;5046516;28;20428;-82
2021/04/02 12:18:09;;;;;;;3.80;2.87;;;10.30;99.90;;;;;;5043779;28;20450;-82
2021/04/02 12:20:35;;;;;;;2.23;2.10;;;10.40;99.90;;;;;;5043974;28;20448;-82
2021/04/02 12:23:01;;;;;;;5.00;1.80;;;9.90;99.90;;;;;;5043934;28;20448;-83
2021/04/02 12:25:28;;;;;;;2.30;2.10;;;10.60;99.90;;;;;;5046506;28;20477;-82
2021/04/02 12:27:55;;;;;;;6.30;2.83;;;;;;;;;;5050740;28;20449;-82
2021/04/02 12:30:21;;;;;;;2.03;1.57;;;10.60;99.90;;;;;;5050260;28;20470;-82
2021/04/02 12:32:49;;;;;;;2.23;2.03;;;10.80;99.90;;;;;;5050113;28;20442;-84
2021/04/02 12:35:15;;;;;;;4.17;3.13;;;10.90;99.90;;;;;;5050372;28;20446;-84
2021/04/02 12:37:42;;;;;;;14.73;5.63;;;11.10;99.90;;;;;;5050647;28;20451;-84
2021/04/02 12:40:12;;;;;;;5.50;2.03;;;11.20;99.90;;;;;;5047818;28;20437;-83
2021/04/02 12:42:39;;;;;;;2.63;1.70;;;;;;;;;;5047154;28;20460;-83
2021/04/02 12:45:09;;;;;;;4.77;2.40;;;11.10;99.90;;;;;;5049291;28;20450;-84
2021/04/02 12:47:36;;;;;;;2.57;2.03;;;11.30;99.90;;;;;;5049759;28;20454;-83
2021/04/02 12:50:06;;;;;;;2.43;2.00;;;11.40;99.90;;;;;;5049568;28;20473;-84
2021/04/02 12:52:33;;;;;;;2.80;2.50;;;;;;;;;;5032042;28;20430;-84
2021/04/02 12:54:59;;;;;;;2.53;2.00;;;11.60;99.90;;;;;;5052026;28;20465;-84
2021/04/02 12:57:26;;;;;;;2.13;1.50;;;11.70;99.90;;;;;;5054325;28;20485;-84
2021/04/02 12:59:52;;;;;;;2.80;1.67;;;11.20;99.90;;;;;;5052100;28;20504;-84
2021/04/02 13:02:18;;;;;;;1.80;1.30;;;11.90;99.90;;;;;;5054247;28;20424;-84
2021/04/02 13:04:44;;;;;;;1.10;1.00;;;12.00;99.90;;;;;;5056647;28;20460;-85
2021/04/02 13:07:11;;;;;;;2.13;1.97;;;11.90;99.90;;;;;;5057985;28;20667;-84
2021/04/02 13:09:37;;;;;;;2.10;1.40;;;12.10;99.90;;;;;;5056732;28;20466;-82